Time;durP1;ratioP1;P1;durP2;ratioP2;P2;SDS_P1;SDS_P2;PMS_P1;PMS_P2;Temp;Humidity;BMP_temperature;BMP_pressure;BME280_temperature;BME280_humidity;BME280_pressure;Samples;Min_cycle;Max_cycle;Signal;HPM_P1;HPM_P2
2021/03/19 00:00:39;;;;;;;;;66.60;51.00;;;;;7.84;36.53;98712.00;6184273;28;125007;-59
2021/03/19 00:03:40;;;;;;;;;67.20;51.00;;;;;7.78;36.45;98700.25;6159151;28;125169;-59
2021/03/19 00:06:42;;;;;;;;;66.00;51.20;;;;;7.81;36.27;98702.53;6159924;28;125386;-59
2021/03/19 00:09:44;;;;;;;;;66.00;51.75;;;;;7.83;36.35;98705.00;6171779;28;127029;-59
2021/03/19 00:12:46;;;;;;;;;69.50;53.00;;;;;7.87;36.29;98700.03;6184493;28;125045;-59
2021/03/19 00:15:47;;;;;;;;;68.33;53.00;;;;;7.87;36.30;98708.09;6184106;28;127577;-59
2021/03/19 00:18:49;;;;;;;;;67.00;52.00;;;;;7.78;36.48;98705.63;6183385;28;124691;-59
2021/03/19 00:21:51;;;;;;;;;69.40;53.00;;;;;7.42;36.55;98640.03;6183453;28;125316;-59
2021/03/19 00:24:52;;;;;;;;;68.00;53.00;;;;;7.73;36.53;98701.91;6183872;28;127042;-59
2021/03/19 00:27:54;;;;;;;;;69.60;53.80;;;;;7.62;36.65;98678.41;6164574;28;125344;-59
2021/03/19 00:30:55;;;;;;;;;71.20;55.00;;;;;7.51;36.20;98669.13;6184461;28;125270;-59
2021/03/19 00:33:57;;;;;;;;;71.00;53.00;;;;;7.69;36.47;98697.97;6183244;28;125193;-59
2021/03/19 00:36:58;;;;;;;;;69.60;54.00;;;;;7.70;36.30;98696.97;6183512;28;125452;-59
2021/03/19 00:40:00;;;;;;;;;67.40;52.60;;;;;7.71;36.11;98691.41;6183056;28;126683;-59
2021/03/19 00:43:06;;;;;;;;;69.00;52.20;;;;;7.62;36.23;98675.72;6183301;28;125165;-59
2021/03/19 00:46:07;;;;;;;;;67.00;51.00;;;;;7.33;36.18;98623.34;6184378;28;127386;-59
2021/03/19 00:49:09;;;;;;;;;69.60;53.00;;;;;7.58;36.11;98675.28;6175156;28;125294;-59
2021/03/19 00:52:11;;;;;;;;;67.80;52.00;;;;;7.75;35.99;98686.44;6183108;28;127079;-59
2021/03/19 00:55:13;;;;;;;;;67.75;52.75;;;;;7.51;36.07;98639.63;6183782;28;126309;-59
2021/03/19 00:58:15;;;;;;;;;66.80;50.80;;;;;7.80;35.88;98690.13;6184130;28;128213;-59
2021/03/19 01:01:16;;;;;;;;;68.40;52.00;;;;;7.81;35.84;98686.44;6183749;28;127492;-59
2021/03/19 01:04:18;;;;;;;;;69.00;52.00;;;;;7.64;35.79;98660.22;6183501;28;126111;-59
2021/03/19 01:07:22;;;;;;;;;65.75;52.00;;;;;7.66;35.85;98677.78;6182507;28;126088;-59
2021/03/19 01:10:39;;;;;;;;;66.00;52.00;;;;;7.70;35.93;98687.06;6182787;28;126019;-59
2021/03/19 01:13:41;;;;;;;;;69.80;52.00;;;;;7.69;35.93;98680.03;6183338;28;126035;-59
2021/03/19 01:16:43;;;;;;;;;67.00;51.00;;;;;7.65;36.14;98678.81;6183965;28;127681;-59
2021/03/19 01:19:44;;;;;;;;;64.80;51.20;;;;;7.68;36.13;98680.22;6182716;28;128165;-59
2021/03/19 01:22:46;;;;;;;;;68.00;51.60;;;;;7.32;36.59;98659.22;6183993;28;128338;-59
2021/03/19 01:25:47;;;;;;;;;67.00;52.60;;;;;7.60;36.70;98683.13;6182835;28;126734;-59
2021/03/19 01:28:49;;;;;;;;;69.80;54.20;;;;;7.66;36.68;98685.81;6162759;28;124314;-59
2021/03/19 01:31:57;;;;;;;;;68.00;52.00;;;;;7.66;36.67;98688.50;6167457;28;125530;-59
2021/03/19 01:34:59;;;;;;;;;73.00;57.80;;;;;7.59;36.88;98676.94;6187369;28;126296;-59
2021/03/19 01:38:02;;;;;;;;;68.60;53.60;;;;;7.68;36.88;98685.59;6187509;28;124756;-59
2021/03/19 01:41:06;;;;;;;;;70.00;53.80;;;;;7.69;37.06;98684.56;6187123;28;126260;-59
2021/03/19 01:44:13;;;;;;;;;71.80;56.00;;;;;7.47;36.98;98641.06;6179060;28;123822;-59
2021/03/19 01:47:52;;;;;;;;;70.60;57.00;;;;;7.65;37.20;98675.28;6187110;28;125931;-59
2021/03/19 01:51:30;;;;;;;;;70.25;54.50;;;;;7.65;37.46;98677.97;6186764;28;126507;-59
2021/03/19 01:55:09;;;;;;;;;76.00;59.00;;;;;7.62;37.45;98676.53;6186781;28;125012;-59
2021/03/19 01:58:48;;;;;;;;;73.67;56.67;;;;;7.59;37.51;98684.16;6161055;28;124852;-59
2021/03/19 02:02:27;;;;;;;;;74.00;60.00;;;;;7.47;38.01;98672.44;6186972;28;126202;-59
2021/03/19 02:06:06;;;;;;;;;72.00;59.00;;;;;7.33;38.15;98671.59;6163241;28;125937;-59
2021/03/19 02:09:45;;;;;;;;;73.00;59.00;;;;;7.26;38.15;98670.75;6154081;28;126076;-59
2021/03/19 02:13:24;;;;;;;;;72.80;59.00;;;;;7.26;38.10;98676.97;6162306;28;125445;-59
2021/03/19 02:17:02;;;;;;;;;73.00;59.50;;;;;7.29;37.95;98676.53;6184918;28;126004;-59
2021/03/19 02:20:41;;;;;;;;;76.00;59.00;;;;;7.26;38.11;98670.75;6185190;28;124569;-59
2021/03/19 02:24:20;;;;;;;;;73.50;61.00;;;;;7.28;38.01;98674.88;6162359;28;127822;-59
2021/03/19 02:27:59;;;;;;;;;72.80;58.00;;;;;7.26;38.10;98674.28;6162274;28;124497;-59
2021/03/19 02:31:10;;;;;;;;;73.20;59.80;;;;;7.20;38.29;98672.41;6161742;28;124848;-59
2021/03/19 02:34:11;;;;;;;;;76.00;60.67;;;;;7.13;38.30;98676.97;6176768;28;124620;-59
2021/03/19 02:37:19;;;;;;;;;77.40;65.00;;;;;7.09;38.46;98677.53;6185848;28;126545;-59
2021/03/19 02:40:23;;;;;;;;;76.40;65.80;;;;;7.06;38.67;98681.47;6185924;28;123963;-59
2021/03/19 02:43:25;;;;;;;;;77.40;63.00;;;;;6.96;38.82;98675.69;6185867;28;124832;-59
2021/03/19 02:46:26;;;;;;;;;76.00;62.60;;;;;6.98;38.98;98673.63;6186176;28;126005;-59
2021/03/19 02:49:29;;;;;;;;;76.00;63.60;;;;;6.92;39.30;98674.44;6186107;28;127298;-60
2021/03/19 02:52:50;;;;;;;;;78.00;63.00;;;;;6.88;39.16;98681.25;6168864;28;123901;-59
2021/03/19 02:55:51;;;;;;;;;78.80;66.20;;;;;6.85;39.15;98684.31;6186132;28;124513;-59
2021/03/19 02:58:53;;;;;;;;;76.00;64.00;;;;;6.79;39.40;98682.47;6185851;28;126648;-59
2021/03/19 03:01:55;;;;;;;;;77.00;65.00;;;;;6.73;39.47;98684.09;6185555;28;126130;-59
2021/03/19 03:04:57;;;;;;;;;78.00;67.60;;;;;6.59;39.98;98676.22;6166576;28;126754;-59
2021/03/19 03:07:59;;;;;;;;;76.20;63.00;;;;;6.67;39.81;98687.56;6185398;28;126228;-59
2021/03/19 03:11:01;;;;;;;;;77.20;64.00;;;;;6.63;40.18;98683.66;6185498;28;126645;-59
2021/03/19 03:14:06;;;;;;;;;78.50;65.50;;;;;6.62;40.15;98690.03;6185717;28;125217;-59
2021/03/19 03:17:07;;;;;;;;;79.40;68.40;;;;;6.60;40.63;98710.81;6184869;28;126083;-59
2021/03/19 03:20:14;;;;;;;;;81.40;69.00;;;;;6.59;40.38;98685.09;6184833;28;127426;-59
2021/03/19 03:23:17;;;;;;;;;79.00;70.25;;;;;6.57;40.75;98681.75;6184929;28;125966;-59
2021/03/19 03:26:19;;;;;;;;;80.60;66.60;;;;;6.55;40.91;98688.38;6177702;28;124932;-59
2021/03/19 03:29:22;;;;;;;;;79.00;67.50;;;;;6.51;40.72;98695.94;6184873;28;124678;-59
2021/03/19 03:32:24;;;;;;;;;79.25;69.00;;;;;6.44;40.94;98695.94;6184633;28;124168;-59
2021/03/19 03:35:26;;;;;;;;;78.00;68.50;;;;;6.37;41.14;98697.75;6184520;28;126501;-59
2021/03/19 03:38:32;;;;;;;;;77.40;67.00;;;;;6.36;41.23;98695.25;6185577;28;126117;-59
2021/03/19 03:41:34;;;;;;;;;81.00;70.40;;;;;6.33;41.15;98690.31;6162551;28;125447;-59
2021/03/19 03:44:35;;;;;;;;;79.00;67.50;;;;;6.30;41.11;98696.91;6185020;28;127104;-59
2021/03/19 03:47:37;;;;;;;;;78.60;69.00;;;;;6.17;41.25;98683.44;6185279;28;125598;-59
2021/03/19 03:50:41;;;;;;;;;80.00;70.60;;;;;6.12;41.74;98674.34;6176169;28;126310;-59
2021/03/19 03:53:43;;;;;;;;;80.00;69.00;;;;;6.05;41.86;98661.78;6162121;28;123779;-59
2021/03/19 03:56:45;;;;;;;;;79.80;71.40;;;;;6.28;41.55;98690.09;6184131;28;125097;-59
2021/03/19 03:59:46;;;;;;;;;80.40;69.00;;;;;6.26;41.91;98692.13;6184812;28;125023;-59
2021/03/19 04:02:48;;;;;;;;;79.00;67.00;;;;;6.25;41.82;98685.16;6183859;28;126998;-59
2021/03/19 04:05:51;;;;;;;;;79.20;69.40;;;;;6.23;41.65;98684.50;6184913;28;127692;-59
2021/03/19 04:08:53;;;;;;;;;79.80;69.80;;;;;5.94;41.97;98637.44;6184583;28;126827;-59
2021/03/19 04:11:54;;;;;;;;;79.40;69.60;;;;;6.29;41.53;98689.91;6184206;28;125464;-59
2021/03/19 04:14:55;;;;;;;;;79.00;69.40;;;;;6.21;41.78;98687.38;6184378;28;126922;-59
2021/03/19 04:17:59;;;;;;;;;77.00;66.33;;;;;6.13;41.62;98673.34;6183797;28;126978;-59
2021/03/19 04:21:08;;;;;;;;;76.40;66.20;;;;;5.90;41.76;98650.38;6157967;28;126183;-59
2021/03/19 04:24:09;;;;;;;;;78.40;62.80;;;;;6.13;41.80;98689.41;6158588;28;127697;-59
2021/03/19 04:27:18;;;;;;;;;77.00;66.40;;;;;6.11;42.09;98686.91;6183779;28;125408;-59
2021/03/19 04:30:25;;;;;;;;;77.00;63.50;;;;;6.11;41.82;98691.47;6182717;28;127242;-59
2021/03/19 04:33:27;;;;;;;;;77.00;65.80;;;;;6.09;42.15;98688.97;6182491;28;125840;-59
2021/03/19 04:36:45;;;;;;;;;76.40;65.00;;;;;6.06;42.29;98692.84;6183160;28;126273;-59
2021/03/19 04:39:49;;;;;;;;;77.80;64.40;;;;;6.05;42.16;98693.06;6183269;28;125345;-59
2021/03/19 04:42:51;;;;;;;;;77.67;62.67;;;;;6.04;41.97;98702.13;6183914;28;126263;-59
2021/03/19 04:45:53;;;;;;;;;80.50;67.00;;;;;6.03;42.08;98687.09;6183649;28;127184;-59
2021/03/19 04:48:55;;;;;;;;;75.80;62.20;;;;;6.02;41.98;98688.94;6183074;28;126326;-59
2021/03/19 04:51:56;;;;;;;;;77.00;66.00;;;;;5.93;42.35;98668.72;6181943;28;125415;-59
2021/03/19 04:55:00;;;;;;;;;76.00;65.00;;;;;5.90;42.27;98669.13;6181846;28;125199;-59
2021/03/19 04:58:02;;;;;;;;;77.40;64.00;;;;;6.05;42.40;98687.72;6165293;28;126081;-59
2021/03/19 05:01:03;;;;;;;;;76.25;65.50;;;;;5.59;42.30;98616.00;6190357;28;126331;-59
2021/03/19 05:04:05;;;;;;;;;78.40;66.40;;;;;6.16;42.58;98691.69;6194366;28;125256;-59
2021/03/19 05:07:08;;;;;;;;;77.50;65.50;;;;;6.18;43.02;98695.81;6174966;28;127408;-59
2021/03/19 05:10:11;;;;;;;;;78.00;68.00;;;;;6.26;43.20;98700.16;6175454;28;126204;-59
2021/03/19 05:13:12;;;;;;;;;77.25;67.50;;;;;6.33;42.93;98704.53;6184014;28;127085;-59
2021/03/19 05:16:14;;;;;;;;;78.00;67.00;;;;;6.47;42.85;98702.75;6183721;28;126270;-59
2021/03/19 05:19:18;;;;;;;;;76.00;64.00;;;;;6.41;43.07;98687.47;6182677;28;125343;-59
2021/03/19 05:22:19;;;;;;;;;80.00;67.00;;;;;6.58;42.78;98693.31;6180023;28;126338;-59
2021/03/19 05:25:29;;;;;;;;;76.60;64.00;;;;;6.68;42.56;98699.94;6181084;28;127086;-60
2021/03/19 05:28:32;;;;;;;;;75.60;64.80;;;;;6.82;42.48;98707.00;6183565;28;126039;-59
2021/03/19 05:31:34;;;;;;;;;77.25;64.25;;;;;6.75;42.35;98663.25;6160550;28;126654;-59
2021/03/19 05:34:37;;;;;;;;;79.00;65.00;;;;;7.03;42.17;98697.13;6182792;28;125371;-59
2021/03/19 05:37:39;;;;;;;;;79.40;68.00;;;;;7.04;42.23;98691.56;6165526;28;126925;-59
2021/03/19 05:40:48;;;;;;;;;79.60;67.60;;;;;7.00;42.12;98684.97;6161655;28;126433;-59
2021/03/19 05:43:55;;;;;;;;;78.00;68.50;;;;;6.89;41.96;98656.09;6182861;28;124712;-59
2021/03/19 05:47:03;;;;;;;;;77.40;65.60;;;;;7.27;42.10;98704.59;6182395;28;126129;-59
2021/03/19 05:50:18;;;;;;;;;79.50;69.50;;;;;7.19;41.72;98677.97;6181737;28;126609;-59
2021/03/19 05:53:32;;;;;;;;;83.75;71.00;;;;;7.47;41.41;98709.97;6139426;28;124886;-59
2021/03/19 05:56:35;;;;;;;;;81.60;71.00;;;;;7.40;41.52;98708.09;6182274;28;126548;-59
2021/03/19 05:59:41;;;;;;;;;80.25;68.50;;;;;7.31;41.75;98684.38;6182552;28;125940;-59
2021/03/19 06:02:43;;;;;;;;;79.00;67.00;;;;;7.59;41.51;98719.03;6183045;28;126631;-60
2021/03/19 06:06:02;;;;;;;;;79.40;69.00;;;;;7.81;41.52;98725.84;6182192;28;124931;-59
2021/03/19 06:09:22;;;;;;;;;77.00;65.67;;;;;7.89;41.05;98693.44;6182570;28;125365;-59
2021/03/19 06:12:26;;;;;;;;;79.50;68.50;;;;;8.25;40.82;98720.63;6182990;28;126661;-59
2021/03/19 06:15:36;;;;;;;;;77.00;69.00;;;;;8.52;40.47;98726.75;6182426;28;123909;-59
2021/03/19 06:18:43;;;;;;;;;78.00;67.60;;;;;8.60;40.21;98729.19;6176908;28;127140;-60
2021/03/19 06:21:44;;;;;;;;;79.80;68.40;;;;;8.60;39.69;98731.88;6179920;28;125812;-59
2021/03/19 06:25:00;;;;;;;;;83.00;71.80;;;;;8.50;40.25;98711.88;6173094;28;125248;-60
2021/03/19 06:28:11;;;;;;;;;80.20;70.60;;;;;8.58;39.66;98715.16;6179316;28;124336;-60
2021/03/19 06:31:28;;;;;;;;;80.60;69.00;;;;;8.77;39.70;98742.16;6171963;28;126405;-60
2021/03/19 06:34:30;;;;;;;;;87.00;71.50;;;;;8.85;39.55;98728.44;6173643;28;126874;-59
2021/03/19 06:37:49;;;;;;;;;79.00;70.00;;;;;8.72;39.44;98699.78;6174442;28;126695;-59
2021/03/19 06:40:51;;;;;;;;;84.20;75.60;;;;;8.64;39.79;98706.25;6151804;28;125772;-59
2021/03/19 06:44:11;;;;;;;;;84.50;73.00;;;;;9.05;39.31;98751.53;6180494;28;127651;-60
2021/03/19 06:47:34;;;;;;;;;85.75;74.25;;;;;9.29;39.20;98749.94;6165102;28;126947;-60
2021/03/19 06:50:39;;;;;;;;;87.60;75.40;;;;;9.60;38.71;98748.28;6164849;28;125989;-59
2021/03/19 06:53:53;;;;;;;;;83.00;73.20;;;;;9.73;38.49;98737.38;6173410;28;126011;-60
2021/03/19 06:57:10;;;;;;;;;85.00;73.00;;;;;9.76;38.18;98723.50;6173451;28;126852;-60
2021/03/19 07:00:12;;;;;;;;;85.80;74.60;;;;;9.86;38.22;98727.34;6172458;28;124971;-60
2021/03/19 07:03:30;;;;;;;;;83.00;73.00;;;;;10.17;38.04;98766.03;6168361;28;127052;-60
2021/03/19 07:06:50;;;;;;;;;80.00;69.00;;;;;10.25;37.32;98758.50;6161613;28;127028;-60
2021/03/19 07:10:18;;;;;;;;;83.20;70.80;;;;;10.34;37.13;98773.34;6161498;28;127806;-60
2021/03/19 07:13:41;;;;;;;;;80.80;71.80;;;;;10.40;36.81;98768.94;6136253;28;125573;-59
2021/03/19 07:17:07;;;;;;;;;78.00;69.00;;;;;10.50;36.76;98773.81;6159999;28;126375;-59
2021/03/19 07:20:31;;;;;;;;;73.00;60.40;;;;;10.55;35.79;98772.09;6174617;28;127113;-59
2021/03/19 07:23:59;;;;;;;;;72.00;60.00;;;;;10.54;35.38;98777.69;6166372;28;126591;-60
2021/03/19 07:27:08;;;;;;;;;75.00;63.00;;;;;10.51;35.59;98770.03;6166824;28;126443;-61
2021/03/19 07:30:37;;;;;;;;;71.40;56.20;;;;;10.61;34.89;98779.25;6180958;28;124493;-60
2021/03/19 07:34:22;;;;;;;;;73.25;57.75;;;;;10.74;34.65;98783.69;6153391;28;126143;-61
2021/03/19 07:38:01;;;;;;;;;72.60;58.00;;;;;10.92;34.38;98777.44;6164945;28;126397;-61
2021/03/19 07:41:15;;;;;;;;;71.00;58.50;;;;;11.00;34.08;98779.81;6176892;28;125416;-59
2021/03/19 07:44:27;;;;;;;;;67.00;53.00;;;;;10.94;34.02;98781.59;6182223;28;124870;-59
2021/03/19 07:47:53;;;;;;;;;71.00;55.00;;;;;10.80;34.11;98775.50;6182460;28;125988;-59
2021/03/19 07:51:16;;;;;;;;;70.00;54.00;;;;;10.77;34.52;98775.13;6183319;28;125980;-59
2021/03/19 07:54:26;;;;;;;;;67.40;51.00;;;;;10.71;34.58;98770.63;6169832;28;126636;-60
2021/03/19 07:58:00;;;;;;;;;65.00;48.25;;;;;10.66;34.11;98784.78;6159409;28;127452;-59
2021/03/19 08:01:04;;;;;;;;;59.00;46.00;;;;;10.63;33.82;98779.88;6160918;28;125713;-58
2021/03/19 08:04:17;;;;;;;;;55.80;44.20;;;;;10.50;33.75;98757.63;6174513;28;125692;-58
2021/03/19 08:07:27;;;;;;;;;60.00;47.60;;;;;10.67;34.07;98782.91;6183127;28;124554;-59
2021/03/19 08:10:32;;;;;;;;;62.50;48.00;;;;;10.69;33.89;98784.38;6181756;28;126075;-60
2021/03/19 08:13:58;;;;;;;;;62.00;47.00;;;;;10.76;33.75;98784.25;6181714;28;124935;-60
2021/03/19 08:17:16;;;;;;;;;56.40;45.40;;;;;10.84;34.09;98779.41;6182219;28;125958;-59
2021/03/19 08:20:44;;;;;;;;;55.00;44.00;;;;;10.90;33.38;98785.75;6182004;28;126971;-58
2021/03/19 08:24:14;;;;;;;;;58.00;45.75;;;;;11.03;33.18;98782.09;6180327;28;124719;-58
2021/03/19 08:27:40;;;;;;;;;58.40;46.00;;;;;11.13;33.60;98780.50;6168781;28;125209;-58
2021/03/19 08:30:53;;;;;;;;;59.25;46.00;;;;;11.29;33.38;98770.91;6175903;28;127055;-59
2021/03/19 08:34:12;;;;;;;;;58.00;46.00;;;;;11.27;32.99;98752.28;6181533;28;126682;-58
2021/03/19 08:37:39;;;;;;;;;72.80;58.80;;;;;11.47;33.91;98773.59;6148248;28;125516;-57
2021/03/19 08:41:00;;;;;;;;;74.67;61.67;;;;;11.51;34.02;98776.63;6165794;28;127425;-57
2021/03/19 08:44:06;;;;;;;;;77.00;62.00;;;;;11.59;34.00;98770.91;6181342;28;126481;-58
2021/03/19 08:47:11;;;;;;;;;71.00;55.80;;;;;11.65;33.79;98775.38;6180630;28;125838;-58
2021/03/19 08:50:25;;;;;;;;;70.00;53.00;;;;;11.70;33.40;98772.81;6155991;28;126819;-57
2021/03/19 08:53:26;;;;;;;;;68.00;52.00;;;;;11.73;33.12;98765.09;6181365;28;125961;-59
2021/03/19 08:56:33;;;;;;;;;70.50;54.50;;;;;11.73;33.18;98769.66;6180355;28;125952;-59
2021/03/19 08:59:34;;;;;;;;;62.20;50.00;;;;;11.80;32.81;98769.56;6170103;28;125349;-59
2021/03/19 09:02:46;;;;;;;;;64.60;50.00;;;;;11.69;32.53;98745.00;6164427;28;126572;-59
2021/03/19 09:06:04;;;;;;;;;62.40;48.80;;;;;12.01;31.83;98763.63;6160946;28;124807;-59
2021/03/19 09:09:30;;;;;;;;;58.40;46.80;;;;;12.18;31.78;98766.44;6171706;28;124817;-59
2021/03/19 09:12:55;;;;;;;;;58.00;46.00;;;;;12.53;31.10;98761.84;6166830;28;125739;-58
2021/03/19 09:16:17;;;;;;;;;55.60;45.00;;;;;13.28;30.43;98767.19;6179776;28;124822;-59
2021/03/19 09:19:40;;;;;;;;;58.00;46.00;;;;;13.85;29.03;98740.84;6148497;28;125640;-59
2021/03/19 09:22:44;;;;;;;;;57.20;45.20;;;;;14.42;28.15;98759.63;6177286;28;125706;-59
2021/03/19 09:26:20;;;;;;;;;55.00;44.00;;;;;14.99;26.89;98760.16;6160393;28;124736;-59
2021/03/19 09:29:28;;;;;;;;;48.00;38.80;;;;;14.78;26.08;98683.06;6138674;28;125503;-59
2021/03/19 09:32:42;;;;;;;;;47.40;38.60;;;;;15.29;25.73;98754.25;6164907;28;127743;-59
2021/03/19 09:35:50;;;;;;;;;49.40;38.00;;;;;15.60;25.90;98754.31;6171252;28;126986;-59
2021/03/19 09:38:52;;;;;;;;;51.60;41.00;;;;;16.54;25.54;98737.34;6172167;28;125253;-59
2021/03/19 09:41:54;;;;;;;;;50.00;40.40;;;;;16.85;24.92;98741.91;6166772;28;126340;-59
2021/03/19 09:44:58;;;;;;;;;44.75;36.00;;;;;16.89;24.13;98747.63;6162247;28;127342;-59
2021/03/19 09:48:15;;;;;;;;;49.00;38.00;;;;;16.59;24.31;98736.59;6159519;28;124835;-58
2021/03/19 09:51:32;;;;;;;;;44.40;36.00;;;;;16.30;24.32;98744.28;6181444;28;124868;-59
2021/03/19 09:54:36;;;;;;;;;42.50;35.00;;;;;15.85;24.31;98736.59;6183293;28;126045;-59
2021/03/19 09:57:42;;;;;;;;;41.60;35.00;;;;;15.66;24.52;98748.94;6184743;28;126226;-59
2021/03/19 10:00:57;;;;;;;;;43.20;36.00;;;;;15.36;24.81;98739.38;6180838;28;124861;-59
2021/03/19 10:04:05;;;;;;;;;43.40;35.00;;;;;14.98;24.59;98725.91;6183356;28;124550;-59
2021/03/19 10:07:34;;;;;;;;;41.80;34.60;;;;;14.72;25.02;98741.06;6172390;28;125897;-59
2021/03/19 10:10:42;;;;;;;;;37.20;32.00;;;;;14.59;24.95;98738.72;6182017;28;125714;-59
2021/03/19 10:13:45;;;;;;;;;35.00;32.00;;;;;14.34;25.06;98741.88;6183534;28;126523;-59
2021/03/19 10:16:46;;;;;;;;;37.00;32.00;;;;;14.05;25.53;98741.19;6159000;28;123442;-59
2021/03/19 10:20:11;;;;;;;;;37.00;30.00;;;;;13.89;26.02;98748.25;6183629;28;126647;-59
2021/03/19 10:23:16;;;;;;;;;34.00;31.00;;;;;13.84;26.30;98747.34;6169299;28;123914;-59
2021/03/19 10:26:33;;;;;;;;;35.40;30.40;;;;;13.80;25.96;98741.59;6158672;28;124460;-59
2021/03/19 10:29:38;;;;;;;;;30.00;26.75;;;;;13.76;26.19;98748.56;6183481;28;126238;-60
2021/03/19 10:32:40;;;;;;;;;35.00;31.00;;;;;13.68;26.12;98750.88;6166800;28;125157;-59
2021/03/19 10:35:59;;;;;;;;;38.00;32.00;;;;;13.57;26.55;98751.75;6166425;28;125339;-60
2021/03/19 10:39:11;;;;;;;;;34.00;29.60;;;;;13.42;26.60;98757.72;6178989;28;125990;-59
2021/03/19 10:42:30;;;;;;;;;28.80;27.80;;;;;13.23;26.78;98765.22;6184412;28;126434;-58
2021/03/19 10:45:40;;;;;;;;;31.40;30.00;;;;;12.97;27.18;98757.63;6184864;28;126035;-58
2021/03/19 10:48:57;;;;;;;;;29.00;27.00;;;;;12.87;27.48;98768.25;6185386;28;127219;-58
2021/03/19 10:52:09;;;;;;;;;33.20;29.00;;;;;12.73;30.04;98762.28;6184165;28;125898;-59
2021/03/19 10:55:24;;;;;;;;;26.60;25.40;;;;;12.59;30.80;98771.72;6183234;28;124826;-58
2021/03/19 10:58:42;;;;;;;;;26.00;24.00;;;;;12.49;31.58;98766.09;6184128;28;124936;-59
2021/03/19 11:01:49;;;;;;;;;21.00;20.20;;;;;12.40;30.20;98765.63;6164523;28;124706;-57
2021/03/19 11:04:54;;;;;;;;;23.00;22.00;;;;;12.38;28.82;98767.72;6166746;28;126057;-58
2021/03/19 11:07:55;;;;;;;;;25.60;23.40;;;;;12.38;28.74;98750.69;6172158;28;127604;-58
2021/03/19 11:10:58;;;;;;;;;28.50;25.00;;;;;12.43;29.53;98753.50;6183205;28;125552;-58
2021/03/19 11:14:05;;;;;;;;;28.20;24.80;;;;;12.65;29.45;98746.44;6183231;28;126429;-57
2021/03/19 11:17:18;;;;;;;;;25.40;25.00;;;;;12.92;29.54;98752.94;6184159;28;126092;-57
2021/03/19 11:20:19;;;;;;;;;25.40;24.40;;;;;13.16;29.40;98759.13;6177758;28;124606;-58
2021/03/19 11:24:00;;;;;;;;;27.50;25.00;;;;;13.70;29.07;98746.00;6166954;28;127160;-57
2021/03/19 11:27:07;;;;;;;;;28.60;25.20;;;;;14.24;27.81;98741.72;6163073;28;126017;-59
2021/03/19 11:30:22;;;;;;;;;25.67;25.00;;;;;14.59;27.12;98749.59;6157022;28;126019;-59
2021/03/19 11:33:23;;;;;;;;;29.60;26.00;;;;;14.63;26.05;98742.59;6171040;28;126279;-59
2021/03/19 11:36:27;;;;;;;;;31.00;28.00;;;;;14.72;26.22;98741.06;6168471;28;124396;-59
2021/03/19 11:39:55;;;;;;;;;26.33;23.67;;;;;14.68;26.63;98745.38;6182706;28;125081;-59
2021/03/19 11:43:02;;;;;;;;;27.40;24.40;;;;;14.55;26.98;98751.16;6175651;28;124851;-59
2021/03/19 11:46:03;;;;;;;;;24.00;23.25;;;;;14.33;27.20;98754.63;6152668;28;127006;-58
2021/03/19 11:49:05;;;;;;;;;26.00;24.00;;;;;13.96;26.83;98718.28;6174536;28;126615;-58
2021/03/19 11:52:20;;;;;;;;;23.50;22.00;;;;;14.05;27.23;98756.63;6172875;28;126605;-59
2021/03/19 11:55:55;;;;;;;;;32.40;28.00;;;;;13.83;28.88;98738.38;6166806;28;127053;-59
2021/03/19 11:58:57;;;;;;;;;31.50;28.00;;;;;13.70;28.84;98743.31;6173154;28;124775;-59
2021/03/19 12:02:01;;;;;;;;;29.00;26.80;;;;;13.70;29.35;98762.28;6169336;28;125989;-59
2021/03/19 12:05:04;;;;;;;;;27.00;23.75;;;;;13.33;30.13;98726.69;6172737;28;124270;-58
2021/03/19 12:08:06;;;;;;;;;24.00;22.40;;;;;13.46;31.13;98761.59;6156939;28;125098;-58
2021/03/19 12:11:16;;;;;;;;;20.60;20.00;;;;;13.27;31.78;98758.25;6169725;28;125302;-57
2021/03/19 12:14:25;;;;;;;;;22.60;21.60;;;;;12.52;32.07;98652.03;6167214;28;127847;-58
2021/03/19 12:17:27;;;;;;;;;21.00;19.60;;;;;13.05;32.76;98753.75;6181975;28;126252;-58
2021/03/19 12:20:30;;;;;;;;;22.33;20.33;;;;;12.70;33.31;98713.25;6147831;28;124815;-57
2021/03/19 12:23:31;;;;;;;;;22.40;21.00;;;;;13.05;33.81;98751.03;6172664;28;127087;-58
2021/03/19 12:26:33;;;;;;;;;21.33;20.33;;;;;13.01;33.60;98745.25;6167861;28;126620;-59
2021/03/19 12:29:36;;;;;;;;;23.50;21.50;;;;;13.15;33.29;98762.06;6181698;28;126418;-58
2021/03/19 12:32:38;;;;;;;;;24.00;23.40;;;;;13.26;33.56;98758.50;6164396;28;124928;-58
2021/03/19 12:35:43;;;;;;;;;26.33;24.00;;;;;13.26;32.98;98720.59;6140530;28;124207;-58
2021/03/19 12:38:45;;;;;;;;;26.20;22.40;;;;;13.30;32.11;98721.75;6169403;28;126177;-57
2021/03/19 12:41:47;;;;;;;;;26.00;25.00;;;;;13.41;30.61;98746.06;6146058;28;125266;-59
2021/03/19 12:44:48;;;;;;;;;28.20;25.20;;;;;13.17;29.53;98713.94;6147119;28;125485;-58
2021/03/19 12:47:50;;;;;;;;;26.00;25.60;;;;;13.25;29.49;98746.00;6161090;28;126526;-58
2021/03/19 12:50:52;;;;;;;;;30.00;27.00;;;;;13.13;29.57;98754.19;6162198;28;125301;-58
2021/03/19 12:53:53;;;;;;;;;28.00;24.00;;;;;12.88;29.98;98732.00;6163354;28;127424;-58
2021/03/19 12:56:55;;;;;;;;;30.40;26.00;;;;;12.63;30.60;98721.50;6127816;28;124157;-58
2021/03/19 12:59:56;;;;;;;;;26.00;22.40;;;;;12.59;30.95;98702.22;6158741;28;128247;-58
2021/03/19 13:02:59;;;;;;;;;26.00;24.60;;;;;12.80;30.80;98744.03;6161572;28;128184;-58
2021/03/19 13:06:02;;;;;;;;;25.00;22.00;;;;;12.28;29.72;98642.34;6165683;28;126727;-58
2021/03/19 13:09:04;;;;;;;;;25.80;23.20;;;;;12.89;29.50;98741.78;6166149;28;126143;-58
2021/03/19 13:12:06;;;;;;;;;22.00;21.00;;;;;13.02;28.90;98734.19;6148019;28;124313;-57
2021/03/19 13:15:25;;;;;;;;;23.50;22.50;;;;;13.23;28.80;98734.63;6162629;28;124667;-58
2021/03/19 13:18:26;;;;;;;;;20.60;19.20;;;;;13.26;27.66;98729.53;6164741;28;124758;-59
2021/03/19 13:21:29;;;;;;;;;22.00;19.00;;;;;13.13;27.23;98721.72;6166479;28;126046;-59
2021/03/19 13:24:31;;;;;;;;;21.00;19.00;;;;;12.79;26.93;98669.34;6163740;28;126854;-58
2021/03/19 13:27:32;;;;;;;;;16.00;15.00;;;;;13.13;26.56;98720.91;6166803;28;125195;-58
2021/03/19 13:30:36;;;;;;;;;19.00;17.00;;;;;13.21;26.57;98718.63;6174519;28;126526;-58
2021/03/19 13:33:38;;;;;;;;;19.50;18.50;;;;;12.46;26.54;98597.03;6170166;28;126365;-58
2021/03/19 13:36:40;;;;;;;;;22.40;20.40;;;;;13.32;26.54;98715.03;6185452;28;125166;-58
2021/03/19 13:39:42;;;;;;;;;20.20;18.20;;;;;13.46;26.13;98712.84;6185242;28;125344;-58
2021/03/19 13:42:43;;;;;;;;;18.00;18.00;;;;;13.82;25.44;98717.78;6154323;28;125033;-58
2021/03/19 13:45:45;;;;;;;;;20.00;18.00;;;;;14.04;25.20;98723.28;6175222;28;128102;-58
2021/03/19 13:48:47;;;;;;;;;21.50;17.00;;;;;14.43;25.57;98721.41;6170712;28;124279;-57
2021/03/19 13:51:49;;;;;;;;;21.50;19.00;;;;;14.58;25.17;98718.09;6184859;28;126603;-57
2021/03/19 13:54:51;;;;;;;;;21.00;21.00;;;;;15.07;24.87;98716.25;6185177;28;125683;-58
2021/03/19 13:57:56;;;;;;;;;21.00;18.00;;;;;15.25;24.47;98715.88;6155868;28;124128;-58
2021/03/19 14:01:02;;;;;;;;;20.00;18.60;;;;;15.22;23.71;98723.75;6159279;28;124625;-59
2021/03/19 14:04:08;;;;;;;;;18.40;17.40;;;;;15.32;23.54;98718.41;6166874;28;124836;-57
2021/03/19 14:07:10;;;;;;;;;16.50;15.75;;;;;15.42;23.33;98713.09;6159434;28;125735;-58
2021/03/19 14:10:12;;;;;;;;;18.00;17.00;;;;;15.38;23.26;98714.69;6172977;28;126414;-58
2021/03/19 14:13:14;;;;;;;;;20.60;18.00;;;;;15.38;23.40;98720.94;6168114;28;125256;-58
2021/03/19 14:16:16;;;;;;;;;18.00;17.00;;;;;15.12;23.50;98700.84;6167450;28;126835;-58
2021/03/19 14:19:18;;;;;;;;;16.60;16.60;;;;;15.09;23.64;98723.06;6165702;28;127819;-58
2021/03/19 14:22:19;;;;;;;;;18.00;17.00;;;;;14.83;24.07;98729.28;6166628;28;125476;-58
2021/03/19 14:25:21;;;;;;;;;19.40;19.00;;;;;14.35;25.49;98715.59;6172793;28;125373;-58